Time;durP1;ratioP1;P1;durP2;ratioP2;P2;SDS_P1;SDS_P2;PMS_P1;PMS_P2;Temp;Humidity;BMP_temperature;BMP_pressure;BME280_temperature;BME280_humidity;BME280_pressure;Samples;Min_cycle;Max_cycle;Signal;HPM_P1;HPM_P2
2021/04/06 00:01:41;;;;;;;;;;;;;;;;;;5040449;28;20251;-87
2021/04/06 00:04:07;;;;;;;;;;;;;;;;;;5073836;28;20333;-88
2021/04/06 00:06:34;;;;;;;;;;;;;;;;;;5040732;28;19991;-87
2021/04/06 00:09:04;;;;;;;;;;;;;;;;;;5033636;28;20362;-87
2021/04/06 00:11:30;;;;;;;;;;;;;;;;;;5020087;28;19909;-88
2021/04/06 00:13:57;;;;;;;;;;;;;;;;;;5019380;28;19944;-87
2021/04/06 00:16:28;;;;;;;;;;;;;;;;;;5020610;28;19913;-87
2021/04/06 00:18:53;;;;;;;;;;;;;;;;;;5036772;28;19913;-87
2021/04/06 00:21:22;;;;;;;;;;;;;;;;;;5020567;28;20354;-88
2021/04/06 00:23:48;;;;;;;;;;;;;;;;;;5036147;28;19912;-88
2021/04/06 00:26:14;;;;;;;;;;;;;;;;;;5019929;28;19908;-88
2021/04/06 00:28:41;;;;;;;;;;;;;;;;;;5020295;28;20385;-87
2021/04/06 00:31:09;;;;;;;;;;;;;;;;;;5019906;28;19916;-87
2021/04/06 00:33:40;;;;;;;;;;;;;;;;;;5020251;28;19913;-88
2021/04/06 00:36:07;;;;;;;;;;;;;;;;;;5037728;28;19948;-89
2021/04/06 00:38:36;;;;;;;;;;;;;;;;;;5036893;28;19909;-89
2021/04/06 00:41:04;;;;;;;;;;;;;;;;;;5036917;28;20003;-90
2021/04/06 00:43:42;;;;;;;;;;;;;;;;;;5020435;28;19916;-91
2021/04/06 00:46:09;;;;;;;;;;;;;;;;;;5020350;28;19934;-92
2021/04/06 00:48:40;;;;;;;;;;;;;;;;;;5020150;28;19952;-91
2021/04/06 00:51:08;;;;;;;;;;;;;;;;;;5020369;28;20007;-91
2021/04/06 00:53:47;;;;;;;;;;;;;;;;;;5069935;28;19908;-90
2021/04/06 00:56:16;;;;;;;;;;;;;;;;;;5036491;28;19909;-90
2021/04/06 00:58:49;;;;;;;;;;;;;;;;;;5053113;28;20289;-89
2021/04/06 01:01:15;;;;;;;;;;;;;;;;;;5035946;28;19916;-90
2021/04/06 01:03:42;;;;;;;;;;;;;;;;;;5036270;28;20426;-90
2021/04/06 01:06:13;;;;;;;;;;;;;;;;;;5036821;28;19908;-90
2021/04/06 01:08:38;;;;;;;;;;;;;;;;;;5053290;28;19942;-90
2021/04/06 01:11:06;;;;;;;;;;;;;;;;;;5036457;28;19909;-90
2021/04/06 01:13:33;;;;;;;;;;;;;;;;;;5052970;28;19912;-90
2021/04/06 01:16:02;;;;;;;;;;;;;;;;;;5019994;28;19984;-90
2021/04/06 01:18:29;;;;;;;;;;;;;;;;;;5019514;28;20365;-88
2021/04/06 01:20:56;;;;;;;;;;;;;;;;;;5035375;28;19944;-85
2021/04/06 01:23:21;;;;;;;;;;;;;;;;;;5033089;28;19921;-87
2021/04/06 01:25:50;;;;;;;;;;;;;;;;;;5034889;28;19985;-86
2021/04/06 01:28:15;;;;;;;;;;;;;;;;;;5018307;28;20309;-87
2021/04/06 01:30:45;;;;;;;;;;;;;;;;;;5025788;28;19916;-87
2021/04/06 01:33:40;;;;;;;;;;;;;;;;;;5018576;28;19932;-86
2021/04/06 01:36:06;;;;;;;;;;;;;;;;;;5011526;28;19909;-87
2021/04/06 01:38:35;;;;;;;;;;;;;;;;;;5023373;28;19951;-86
2021/04/06 01:41:00;;;;;;;;;;;;;;;;;;5043152;28;19960;-86
2021/04/06 01:43:30;;;;;;;;;;;;;;;;;;5017885;28;19940;-85
2021/04/06 01:46:19;;;;;;;;;;;;;;;;;;5018693;28;20003;-86
2021/04/06 01:48:46;;;;;;;;;;;;;;;;;;5034289;28;19961;-86
2021/04/06 01:51:12;;;;;;;;;;;;;;;;;;5042813;28;19974;-85
2021/04/06 01:53:38;;;;;;;;;;;;;;;;;;5018419;28;19913;-86
2021/04/06 01:56:10;;;;;;;;;;;;;;;;;;5045760;28;19916;-86
2021/04/06 01:58:42;;;;;;;;;;;;;;;;;;5019063;28;19913;-86
2021/04/06 02:01:26;;;;;;;;;;;;;;;;;;5015048;28;19952;-86
2021/04/06 02:04:00;;;;;;;;;;;;;;;;;;5051555;28;19921;-86
2021/04/06 02:06:26;;;;;;;;;;;;;;;;;;5049574;28;19912;-87
2021/04/06 02:08:52;;;;;;;;;;;;;;;;;;5031616;28;19913;-86
2021/04/06 02:11:18;;;;;;;;;;;;;;;;;;5015055;28;19962;-87
2021/04/06 02:13:43;;;;;;;;;;;;;;;;;;5016963;28;19909;-86
2021/04/06 02:16:09;;;;;;;;;;;;;;;;;;5035105;28;19915;-86
2021/04/06 02:18:35;;;;;;;;;;;;;;;;;;5018599;28;19916;-87
2021/04/06 02:21:03;;;;;;;;;;;;;;;;;;5018157;28;19916;-87
2021/04/06 02:23:44;;;;;;;;;;;;;;;;;;5017973;28;20007;-87
2021/04/06 02:26:14;;;;;;;;;;;;;;;;;;5018377;28;19916;-88
2021/04/06 02:28:42;;;;;;;;;;;;;;;;;;5018606;28;19909;-87
2021/04/06 02:31:07;;;;;;;;;;;;;;;;;;5034392;28;19913;-88
2021/04/06 02:33:34;;;;;;;;;;;;;;;;;;5018378;28;19935;-87
2021/04/06 02:36:04;;;;;;;;;;;;;;;;;;5018595;28;19909;-88
2021/04/06 02:38:34;;;;;;;;;;;;;;;;;;5018153;28;19908;-88
2021/04/06 02:41:11;;;;;;;;;;;;;;;;;;5018282;28;20374;-89
2021/04/06 02:43:47;;;;;;;;;;;;;;;;;;5034982;28;19966;-88
2021/04/06 02:46:19;;;;;;;;;;;;;;;;;;5036074;28;19943;-88
2021/04/06 02:48:47;;;;;;;;;;;;;;;;;;5022506;28;19913;-89
2021/04/06 02:51:15;;;;;;;;;;;;;;;;;;5022211;28;19908;-89
2021/04/06 02:53:47;;;;;;;;;;;;;;;;;;5055375;28;19995;-88
2021/04/06 02:56:30;;;;;;;;;;;;;;;;;;5022889;28;19909;-89
2021/04/06 02:58:59;;;;;;;;;;;;;;;;;;5022241;28;20398;-88
2021/04/06 03:01:24;;;;;;;;;;;;;;;;;;5038330;28;19919;-88
2021/04/06 03:03:50;;;;;;;;;;;;;;;;;;5021825;28;19913;-88
2021/04/06 03:06:16;;;;;;;;;;;;;;;;;;5021820;28;19912;-88
2021/04/06 03:08:41;;;;;;;;;;;;;;;;;;5021890;28;19919;-87
2021/04/06 03:11:10;;;;;;;;;;;;;;;;;;5037904;28;19909;-87
2021/04/06 03:13:40;;;;;;;;;;;;;;;;;;5021682;28;19975;-87
2021/04/06 03:16:07;;;;;;;;;;;;;;;;;;5021395;28;19931;-85
2021/04/06 03:18:37;;;;;;;;;;;;;;;;;;5021296;28;20359;-86
2021/04/06 03:21:07;;;;;;;;;;;;;;;;;;5021383;28;19909;-86
2021/04/06 03:23:32;;;;;;;;;;;;;;;;;;5021228;28;19939;-86
2021/04/06 03:25:59;;;;;;;;;;;;;;;;;;5021145;28;19908;-85
2021/04/06 03:28:35;;;;;;;;;;;;;;;;;;5021009;28;20282;-85
2021/04/06 03:31:20;;;;;;;;;;;;;;;;;;5020182;28;19917;-85
2021/04/06 03:33:47;;;;;;;;;;;;;;;;;;5020336;28;19951;-85
2021/04/06 03:36:19;;;;;;;;;;;;;;;;;;5020358;28;19959;-84
2021/04/06 03:38:44;;;;;;;;;;;;;;;;;;5020290;28;19963;-84
2021/04/06 03:41:10;;;;;;;;;;;;;;;;;;5020266;28;19908;-84
2021/04/06 03:43:39;;;;;;;;;;;;;;;;;;5020335;28;19917;-84
2021/04/06 03:46:04;;;;;;;;;;;;;;;;;;5020141;28;19909;-84
2021/04/06 03:48:33;;;;;;;;;;;;;;;;;;5020053;28;20061;-84
2021/04/06 03:50:59;;;;;;;;;;;;;;;;;;5020164;28;19962;-84
2021/04/06 03:53:25;;;;;;;;;;;;;;;;;;5049958;28;19967;-84
2021/04/06 03:56:03;;;;;;;;;;;;;;;;;;5016709;28;19924;-84
2021/04/06 03:58:32;;;;;;;;;;;;;;;;;;5015832;28;20007;-84
2021/04/06 04:00:58;;;;;;;;;;;;;;;;;;5016197;28;20437;-84
2021/04/06 04:03:23;;;;;;;;;;;;;;;;;;5036170;28;20039;-84
2021/04/06 04:05:51;;;;;;;;;;;;;;;;;;5019894;28;19958;-84
2021/04/06 04:08:16;;;;;;;;;;;;;;;;;;5008086;28;19913;-85
2021/04/06 04:10:42;;;;;;;;;;;;;;;;;;5016904;28;19909;-85
2021/04/06 04:13:08;;;;;;;;;;;;;;;;;;5000334;28;19932;-85
2021/04/06 04:15:35;;;;;;;;;;;;;;;;;;5033859;28;19908;-85
2021/04/06 04:18:01;;;;;;;;;;;;;;;;;;5019507;28;19915;-84
2021/04/06 04:20:27;;;;;;;;;;;;;;;;;;5036473;28;19948;-84
2021/04/06 04:22:53;;;;;;;;;;;;;;;;;;5019498;28;19963;-84
2021/04/06 04:25:18;;;;;;;;;;;;;;;;;;5019085;28;19913;-85
2021/04/06 04:27:44;;;;;;;;;;;;;;;;;;5035957;28;20270;-85
2021/04/06 04:30:09;;;;;;;;;;;;;;;;;;5019148;28;19948;-85
2021/04/06 04:32:35;;;;;;;;;;;;;;;;;;5018976;28;20011;-85
2021/04/06 04:35:00;;;;;;;;;;;;;;;;;;5019560;28;19936;-85
2021/04/06 04:37:26;;;;;;;;;;;;;;;;;;5019481;28;19995;-85
2021/04/06 04:39:52;;;;;;;;;;;;;;;;;;5019248;28;19964;-85
2021/04/06 04:42:17;;;;;;;;;;;;;;;;;;5019458;28;19913;-85
2021/04/06 04:44:43;;;;;;;;;;;;;;;;;;5035449;28;19909;-86
2021/04/06 04:47:09;;;;;;;;;;;;;;;;;;5019460;28;19909;-84
2021/04/06 04:49:34;;;;;;;;;;;;;;;;;;5035822;28;19977;-84
2021/04/06 04:51:59;;;;;;;;;;;;;;;;;;5019096;28;19915;-84
2021/04/06 04:54:25;;;;;;;;;;;;;;;;;;5018806;28;19916;-84
2021/04/06 04:56:51;;;;;;;;;;;;;;;;;;5018987;28;19924;-85
2021/04/06 04:59:16;;;;;;;;;;;;;;;;;;5018904;28;19969;-86
2021/04/06 05:01:42;;;;;;;;;;;;;;;;;;5019254;28;19995;-86
2021/04/06 05:04:08;;;;;;;;;;;;;;;;;;5019865;28;20054;-86
2021/04/06 05:06:34;;;;;;;;;;;;;;;;;;5019548;28;20003;-86
2021/04/06 05:09:03;;;;;;;;;;;;;;;;;;5019146;28;19915;-85
2021/04/06 05:11:30;;;;;;;;;;;;;;;;;;5019198;28;19908;-86
2021/04/06 05:13:56;;;;;;;;;;;;;;;;;;5052068;28;19913;-86
2021/04/06 05:16:21;;;;;;;;;;;;;;;;;;5019511;28;20273;-86
2021/04/06 05:18:49;;;;;;;;;;;;;;;;;;5019727;28;19908;-86
2021/04/06 05:21:16;;;;;;;;;;;;;;;;;;5019543;28;20358;-87
2021/04/06 05:23:42;;;;;;;;;;;;;;;;;;5019170;28;19916;-87
2021/04/06 05:26:08;;;;;;;;;;;;;;;;;;5019173;28;19991;-88
2021/04/06 05:28:35;;;;;;;;;;;;;;;;;;5019335;28;19963;-88
2021/04/06 05:31:02;;;;;;;;;;;;;;;;;;5018599;28;19951;-87
2021/04/06 05:33:29;;;;;;;;;;;;;;;;;;5019129;28;19912;-87
2021/04/06 05:35:54;;;;;;;;;;;;;;;;;;5035614;28;19935;-87
2021/04/06 05:38:21;;;;;;;;;;;;;;;;;;5018844;28;19912;-86
2021/04/06 05:40:47;;;;;;;;;;;;;;;;;;5010185;28;20019;-87
2021/04/06 05:43:14;;;;;;;;;;;;;;;;;;4999387;28;19916;-92
2021/04/06 05:45:45;;;;;;;;;;;;;;;;;;4998561;28;20314;-85
2021/04/06 05:48:12;;;;;;;;;;;;;;;;;;5014844;28;20481;-81
2021/04/06 05:50:38;;;;;;;;;;;;;;;;;;5016787;28;19995;-81
2021/04/06 05:53:03;;;;;;;;;;;;;;;;;;5033938;28;19995;-80
2021/04/06 05:55:28;;;;;;;;;;;;;;;;;;5049510;28;19909;-80
2021/04/06 05:57:54;;;;;;;;;;;;;;;;;;5031536;28;19924;-80
2021/04/06 06:00:19;;;;;;;;;;;;;;;;;;5047675;28;19913;-80
2021/04/06 06:02:45;;;;;;;;;;;;;;;;;;5050105;28;19916;-80
2021/04/06 06:05:21;;;;;;;;;;;;;;;;;;5034085;28;19966;-81
2021/04/06 06:07:49;;;;;;;;;;;;;;;;;;5052219;28;19909;-81
2021/04/06 06:10:23;;;;;;;;;;;;;;;;;;5034002;28;19915;-81
2021/04/06 06:12:49;;;;;;;;;;;;;;;;;;5051247;28;19912;-81
2021/04/06 06:15:14;;;;;;;;;;;;;;;;;;5034498;28;19915;-81
2021/04/06 06:17:39;;;;;;;;;;;;;;;;;;5029289;28;19992;-81
2021/04/06 06:20:13;;;;;;;;;;;;;;;;;;5017619;28;19916;-80
2021/04/06 06:22:38;;;;;;;;;;;;;;;;;;5037898;28;19913;-81
2021/04/06 06:25:08;;;;;;;;;;;;;;;;;;5054570;28;19909;-81
2021/04/06 06:27:38;;;;;;;;;;;;;;;;;;5037417;28;19915;-81
2021/04/06 06:30:27;;;;;;;;;;;;;;;;;;5037420;28;19920;-81
2021/04/06 06:33:11;;;;;;;;;;;;;;;;;;5045025;28;19925;-81
2021/04/06 06:35:37;;;;;;;;;;;;;;;;;;5017879;28;19909;-82
2021/04/06 06:38:18;;;;;;;;;;;;;;;;;;5033537;28;19963;-82
2021/04/06 06:40:44;;;;;;;;;;;;;;;;;;5017455;28;20007;-82
2021/04/06 06:43:10;;;;;;;;;;;;;;;;;;5035411;28;20425;-82
2021/04/06 06:45:36;;;;;;;;;;;;;;;;;;5037096;28;19923;-82
2021/04/06 06:48:01;;;;;;;;;;;;;;;;;;5020718;28;20037;-82
2021/04/06 06:50:26;;;;;;;;;;;;;;;;;;5034831;28;20013;-81
2021/04/06 06:52:52;;;;;;;;;;;;;;;;;;5037221;28;19951;-82
2021/04/06 06:55:23;;;;;;;;;;;;;;;;;;5037291;28;19908;-81
2021/04/06 06:57:49;;;;;;;;;;;;;;;;;;5037149;28;19908;-82
2021/04/06 07:00:15;;;;;;;;;;;;;;;;;;5036769;28;19915;-82
2021/04/06 07:02:40;;;;;;;;;;;;;;;;;;5070562;28;19921;-82
2021/04/06 07:05:12;;;;;;;;;;;;;;;;;;5037019;28;20430;-82
2021/04/06 07:07:47;;;;;;;;;;;;;;;;;;5053869;28;20391;-82
2021/04/06 07:10:14;;;;;;;;;;;;;;;;;;5053177;28;19919;-82
2021/04/06 07:12:39;;;;;;;;;;;;;;;;;;5020316;28;19908;-82
2021/04/06 07:15:05;;;;;;;;;;;;;;;;;;5036993;28;20379;-82
2021/04/06 07:17:30;;;;;;;;;;;;;;;;;;5020470;28;19916;-82
2021/04/06 07:19:55;;;;;;;;;;;;;;;;;;5036730;28;20386;-82
2021/04/06 07:22:20;;;;;;;;;;;;;;;;;;5036783;28;19927;-83
2021/04/06 07:24:46;;;;;;;;;;;;;;;;;;5052794;28;19923;-82
2021/04/06 07:27:12;;;;;;;;;;;;;;;;;;5016432;28;20445;-82
2021/04/06 07:29:37;;;;;;;;;;;;;;;;;;5032924;28;19909;-83
2021/04/06 07:32:03;;;;;;;;;;;;;;;;;;5029563;28;20290;-84
2021/04/06 07:34:28;;;;;;;;;;;;;;;;;;5037683;28;20296;-87
2021/04/06 07:37:03;;;;;;;;;;;;;;;;;;5037865;28;19956;-90
2021/04/06 07:39:31;;;;;;;;;;;;;;;;;;5070340;28;20418;-91
2021/04/06 07:41:58;;;;;;;;;;;;;;;;;;5034295;28;19916;-90
2021/04/06 07:44:26;;;;;;;;;;;;;;;;;;5002000;28;20425;-89
2021/04/06 07:46:52;;;;;;;;;;;;;;;;;;5018857;28;20059;-89
2021/04/06 07:49:20;;;;;;;;;;;;;;;;;;5018075;28;19909;-89
2021/04/06 07:51:45;;;;;;;;;;;;;;;;;;5035919;28;19913;-89
2021/04/06 07:54:15;;;;;;;;;;;;;;;;;;5034296;28;19932;-90
2021/04/06 07:56:56;;;;;;;;;;;;;;;;;;5018801;28;19916;-91
2021/04/06 07:59:24;;;;;;;;;;;;;;;;;;5034686;28;20530;-91
2021/04/06 08:01:51;;;;;;;;;;;;;;;;;;5034812;28;20001;-92
2021/04/06 08:04:18;;;;;;;;;;;;;;;;;;5035259;28;19917;-89
2021/04/06 08:06:46;;;;;;;;;;;;;;;;;;5019073;28;19909;-91
2021/04/06 08:09:45;;;;;;;;;;;;;;;;;;5018508;28;19960;-91
2021/04/06 08:12:22;;;;;;;;;;;;;;;;;;5037613;28;20328;-92
2021/04/06 08:14:55;;;;;;;;;;;;;;;;;;5046947;28;19916;-92
2021/04/06 08:17:24;;;;;;;;;;;;;;;;;;5038906;28;19930;-88
2021/04/06 08:19:53;;;;;;;;;;;;;;;;;;5059255;28;19913;-95
2021/04/06 08:22:20;;;;;;;;;;;;;;;;;;5057758;28;19963;-94
2021/04/06 08:24:47;;;;;;;;;;;;;;;;;;5057467;28;19913;-94
2021/04/06 08:27:32;;;;;;;;;;;;;;;;;;5021564;28;19913;-89
2021/04/06 08:30:15;;;;;;;;;;;;;;;;;;5042635;28;19959;-88
2021/04/06 08:32:43;;;;;;;;;;;;;;;;;;5044643;28;20208;-87
2021/04/06 08:35:11;;;;;;;;;;;;;;;;;;5036334;28;19909;-86
2021/04/06 08:37:38;;;;;;;;;;;;;;;;;;5052196;28;19923;-84
2021/04/06 08:40:09;;;;;;;;;;;;;;;;;;5056849;28;19915;-90
2021/04/06 08:42:35;;;;;;;;;;;;;;;;;;5070116;28;19913;-86
2021/04/06 08:45:01;;;;;;;;;;;;;;;;;;5019751;28;19909;-86
2021/04/06 08:47:44;;;;;;;;;;;;;;;;;;5034922;28;20381;-88
2021/04/06 08:50:10;;;;;;;;;;;;;;;;;;5036475;28;20385;-90
2021/04/06 08:52:38;;;;;;;;;;;;;;;;;;5036109;28;19908;-88
2021/04/06 08:55:08;;;;;;;;;;;;;;;;;;5036001;28;19908;-87
2021/04/06 08:57:33;;;;;;;;;;;;;;;;;;5019273;28;20248;-87
2021/04/06 09:00:04;;;;;;;;;;;;;;;;;;5020280;28;20059;-87
2021/04/06 09:02:29;;;;;;;;;;;;;;;;;;5019344;28;20019;-87
2021/04/06 09:04:56;;;;;;;;;;;;;;;;;;5019248;28;20003;-88
2021/04/06 09:07:23;;;;;;;;;;;;;;;;;;5019309;28;19976;-88
2021/04/06 09:09:53;;;;;;;;;;;;;;;;;;5036315;28;19944;-89
2021/04/06 09:12:19;;;;;;;;;;;;;;;;;;5019984;28;19912;-89
2021/04/06 09:14:45;;;;;;;;;;;;;;;;;;5019840;28;19958;-89
2021/04/06 09:17:10;;;;;;;;;;;;;;;;;;5052572;28;20029;-85
2021/04/06 09:19:37;;;;;;;;;;;;;;;;;;5034756;28;19996;-85
2021/04/06 09:22:04;;;;;;;;;;;;;;;;;;5034456;28;19912;-83
2021/04/06 09:24:29;;;;;;;;;;;;;;;;;;5029645;28;19913;-87
2021/04/06 09:26:56;;;;;;;;;;;;;;;;;;5019404;28;20271;-92
2021/04/06 09:29:26;;;;;;;;;;;;;;;;;;5035838;28;20007;-86
2021/04/06 09:32:03;;;;;;;;;;;;;;;;;;5024626;28;19956;-91
2021/04/06 09:34:30;;;;;;;;;;;;;;;;;;5015944;28;19912;-85
2021/04/06 09:36:58;;;;;;;;;;;;;;;;;;5015746;28;19955;-88
2021/04/06 09:39:26;;;;;;;;;;;;;;;;;;5038272;28;19909;-87
2021/04/06 09:41:53;;;;;;;;;;;;;;;;;;5031925;28;19917;-86
2021/04/06 09:44:21;;;;;;;;;;;;;;;;;;5015650;28;19924;-87
2021/04/06 09:46:51;;;;;;;;;;;;;;;;;;5016375;28;19909;-87
2021/04/06 09:49:17;;;;;;;;;;;;;;;;;;5015893;28;19963;-88
2021/04/06 09:51:46;;;;;;;;;;;;;;;;;;5016172;28;19909;-91
2021/04/06 09:54:12;;;;;;;;;;;;;;;;;;4999375;28;20012;-88
2021/04/06 09:56:39;;;;;;;;;;;;;;;;;;5032158;28;19996;-88
2021/04/06 09:59:06;;;;;;;;;;;;;;;;;;5014661;28;19909;-86
2021/04/06 10:01:34;;;;;;;;;;;;;;;;;;5015469;28;19921;-89
2021/04/06 10:04:00;;;;;;;;;;;;;;;;;;5026676;28;19940;-87
2021/04/06 10:06:32;;;;;;;;;;;;;;;;;;5014739;28;19909;-85
2021/04/06 10:08:59;;;;;;;;;;;;;;;;;;5014927;28;19937;-86
2021/04/06 10:11:30;;;;;;;;;;;;;;;;;;5035267;28;19919;-87
2021/04/06 10:13:56;;;;;;;;;;;;;;;;;;5018524;28;19916;-88
2021/04/06 10:16:23;;;;;;;;;;;;;;;;;;5025315;28;19916;-88
2021/04/06 10:18:48;;;;;;;;;;;;;;;;;;5037733;28;19958;-86
2021/04/06 10:21:25;;;;;;;;;;;;;;;;;;5037793;28;19912;-87
2021/04/06 10:23:58;;;;;;;;;;;;;;;;;;5036932;28;19959;-86
2021/04/06 10:26:23;;;;;;;;;;;;;;;;;;5037184;28;19999;-87
2021/04/06 10:29:02;;;;;;;;;;;;;;;;;;5038315;28;19963;-88
2021/04/06 10:31:42;;;;;;;;;;;;;;;;;;5038362;28;19912;-90
2021/04/06 10:34:11;;;;;;;;;;;;;;;;;;5037934;28;19912;-90
2021/04/06 10:36:36;;;;;;;;;;;;;;;;;;5071762;28;20274;-89
2021/04/06 10:39:03;;;;;;;;;;;;;;;;;;5019135;28;19909;-89
2021/04/06 10:41:28;;;;;;;;;;;;;;;;;;5018531;28;19908;-89
2021/04/06 10:43:55;;;;;;;;;;;;;;;;;;5024668;28;19913;-90
2021/04/06 10:46:24;;;;;;;;;;;;;;;;;;5025469;28;19940;-88
2021/04/06 10:48:51;;;;;;;;;;;;;;;;;;5029561;28;19912;-87
2021/04/06 10:51:21;;;;;;;;;;;;;;;;;;5047519;28;19920;-87
2021/04/06 10:53:48;;;;;;;;;;;;;;;;;;5034560;28;19955;-87
2021/04/06 10:56:17;;;;;;;;;;;;;;;;;;5050693;28;19915;-86
2021/04/06 10:58:46;;;;;;;;;;;;;;;;;;5050947;28;19912;-86
2021/04/06 11:01:15;;;;;;;;;;;;;;;;;;5034195;28;20023;-88
2021/04/06 11:03:49;;;;;;;;;;;;;;;;;;5034283;28;19965;-92
2021/04/06 11:06:33;;;;;;;;;;;;;;;;;;5018994;28;19909;-94
2021/04/06 11:09:16;;;;;;;;;;;;;;;;;;5046727;28;19912;-96
2021/04/06 11:11:42;;;;;;;;;;;;;;;;;;5055230;28;19962;-94
2021/04/06 11:17:33;;;;;;;;;;;;;;;;;;5056175;28;19950;-96
2021/04/06 11:20:28;;;;;;;;;;;;;;;;;;5021756;28;19912;-94
2021/04/06 11:23:21;;;;;;;;;;;;;;;;;;5052790;28;19916;-92
2021/04/06 11:25:48;;;;;;;;;;;;;;;;;;5054852;28;19913;-91
2021/04/06 11:28:13;;;;;;;;;;;;;;;;;;5021613;28;19916;-90
2021/04/06 11:30:38;;;;;;;;;;;;;;;;;;5037810;28;19913;-90
2021/04/06 11:33:04;;;;;;;;;;;;;;;;;;5037866;28;19917;-89
2021/04/06 11:35:29;;;;;;;;;;;;;;;;;;5034764;28;19915;-88
2021/04/06 11:37:55;;;;;;;;;;;;;;;;;;5034657;28;19909;-88
2021/04/06 11:40:22;;;;;;;;;;;;;;;;;;5018051;28;19909;-89
2021/04/06 11:42:48;;;;;;;;;;;;;;;;;;5015746;28;20015;-89
2021/04/06 11:45:13;;;;;;;;;;;;;;;;;;5021283;28;20019;-89
2021/04/06 11:47:38;;;;;;;;;;;;;;;;;;5021507;28;20362;-89
2021/04/06 11:50:05;;;;;;;;;;;;;;;;;;5021323;28;19939;-85
2021/04/06 11:52:31;;;;;;;;;;;;;;;;;;5035072;28;20004;-84
2021/04/06 11:54:57;;;;;;;;;;;;;;;;;;5017113;28;20012;-88
2021/04/06 11:57:24;;;;;;;;;;;;;;;;;;5034110;28;20339;-87
2021/04/06 11:59:52;;;;;;;;;;;;;;;;;;5033490;28;19932;-87
2021/04/06 12:02:18;;;;;;;;;;;;;;;;;;5017164;28;19967;-87
2021/04/06 12:04:44;;;;;;;;;;;;;;;;;;5033772;28;19913;-90
2021/04/06 12:07:12;;;;;;;;;;;;;;;;;;5017888;28;19909;-89
2021/04/06 12:09:40;;;;;;;;;;;;;;;;;;5017338;28;19935;-90
2021/04/06 12:12:07;;;;;;;;;;;;;;;;;;5046934;28;20057;-90
2021/04/06 12:14:33;;;;;;;;;;;;;;;;;;5028176;28;19966;-86
2021/04/06 12:17:01;;;;;;;;;;;;;;;;;;5018402;28;19909;-90
2021/04/06 12:19:29;;;;;;;;;;;;;;;;;;5017172;28;19956;-90
2021/04/06 12:21:57;;;;;;;;;;;;;;;;;;5017536;28;19909;-89
2021/04/06 12:24:24;;;;;;;;;;;;;;;;;;5017368;28;19927;-90
2021/04/06 12:26:55;;;;;;;;;;;;;;;;;;5034020;28;19956;-91
2021/04/06 12:29:24;;;;;;;;;;;;;;;;;;5034052;28;19920;-92
2021/04/06 12:31:50;;;;;;;;;;;;;;;;;;5017496;28;19919;-92
2021/04/06 12:34:16;;;;;;;;;;;;;;;;;;5031390;28;19912;-88
2021/04/06 12:36:43;;;;;;;;;;;;;;;;;;5053866;28;19916;-92
2021/04/06 12:39:08;;;;;;;;;;;;;;;;;;5020159;28;19912;-92
2021/04/06 12:41:35;;;;;;;;;;;;;;;;;;5020330;28;19920;-93
2021/04/06 12:47:00;;;;;;;;;;;;;;;;;;5053795;28;20011;-92
2021/04/06 12:49:45;;;;;;;;;;;;;;;;;;5037261;28;20371;-94
2021/04/06 12:52:12;;;;;;;;;;;;;;;;;;5037434;28;19920;-92
2021/04/06 12:55:29;;;;;;;;;;;;;;;;;;;;;
2021/04/06 12:58:40;;;;;;;;;;;;;;;;;;4993727;28;19996;-94
2021/04/06 13:01:10;;;;;;;;;;;;;;;;;;5036693;28;19999;-94
2021/04/06 13:03:42;;;;;;;;;;;;;;;;;;5020298;28;19913;-92
2021/04/06 13:06:09;;;;;;;;;;;;;;;;;;5020030;28;19912;-93
2021/04/06 13:08:44;;;;;;;;;;;;;;;;;;5020439;28;19909;-94
2021/04/06 13:11:13;;;;;;;;;;;;;;;;;;5020461;28;19950;-93
2021/04/06 13:20:37;;;;;;;;;;;;;;;;;;5054164;28;19916;-95
2021/04/06 13:26:44;;;;;;;;;;;;;;;;;;5058532;28;19913;-96
2021/04/06 13:40:08;;;;;;;;;;;;;;;;;;5050717;28;19962;-95
2021/04/06 13:42:39;;;;;;;;;;;;;;;;;;5031603;28;19913;-89
2021/04/06 13:45:09;;;;;;;;;;;;;;;;;;5031965;28;20095;-87
2021/04/06 13:47:34;;;;;;;;;;;;;;;;;;5015785;28;20001;-88
2021/04/06 13:49:59;;;;;;;;;;;;;;;;;;5015746;28;19948;-88
2021/04/06 13:52:24;;;;;;;;;;;;;;;;;;5031201;28;19909;-84
2021/04/06 13:54:50;;;;;;;;;;;;;;;;;;5014555;28;19963;-84
2021/04/06 13:57:15;;;;;;;;;;;;;;;;;;5031341;28;19916;-85
2021/04/06 13:59:40;;;;;;;;;;;;;;;;;;5031094;28;20002;-86
2021/04/06 14:02:06;;;;;;;;;;;;;;;;;;5014613;28;19913;-85
2021/04/06 14:04:31;;;;;;;;;;;;;;;;;;5050048;28;19978;-86
2021/04/06 14:06:56;;;;;;;;;;;;;;;;;;5035062;28;19912;-87
2021/04/06 14:09:21;;;;;;;;;;;;;;;;;;5018296;28;19917;-86
2021/04/06 14:11:47;;;;;;;;;;;;;;;;;;5018447;28;19913;-87
2021/04/06 14:14:12;;;;;;;;;;;;;;;;;;5018703;28;19917;-88
2021/04/06 14:16:37;;;;;;;;;;;;;;;;;;5018687;28;19967;-88
2021/04/06 14:19:02;;;;;;;;;;;;;;;;;;5018760;28;19952;-88
2021/04/06 14:21:28;;;;;;;;;;;;;;;;;;5018476;28;19916;-89
2021/04/06 14:23:53;;;;;;;;;;;;;;;;;;5018776;28;19915;-88
2021/04/06 14:26:18;;;;;;;;;;;;;;;;;;5018256;28;19913;-88
2021/04/06 14:28:43;;;;;;;;;;;;;;;;;;5018707;28;19909;-87
2021/04/06 14:31:09;;;;;;;;;;;;;;;;;;5014698;28;20383;-87
2021/04/06 14:33:34;;;;;;;;;;;;;;;;;;4999196;28;19909;-87
2021/04/06 14:35:59;;;;;;;;;;;;;;;;;;4998577;28;19909;-86
2021/04/06 14:38:25;;;;;;;;;;;;;;;;;;4998286;28;20015;-85
2021/04/06 14:40:50;;;;;;;;;;;;;;;;;;4997981;28;20374;-84
2021/04/06 14:43:21;;;;;;;;;;;;;;;;;;5033848;28;19917;-85
2021/04/06 14:45:47;;;;;;;;;;;;;;;;;;5018485;28;20478;-85
2021/04/06 14:48:13;;;;;;;;;;;;;;;;;;5001952;28;19935;-84
2021/04/06 14:50:38;;;;;;;;;;;;;;;;;;5001641;28;19909;-84
2021/04/06 14:53:04;;;;;;;;;;;;;;;;;;5018259;28;19913;-85
2021/04/06 14:55:30;;;;;;;;;;;;;;;;;;5001322;28;19909;-84
2021/04/06 14:57:55;;;;;;;;;;;;;;;;;;5017873;28;19909;-84
2021/04/06 15:00:20;;;;;;;;;;;;;;;;;;5001325;28;20054;-84
2021/04/06 15:02:47;;;;;;;;;;;;;;;;;;5006710;28;19913;-83
2021/04/06 15:05:12;;;;;;;;;;;;;;;;;;5020991;28;20432;-83
2021/04/06 15:07:38;;;;;;;;;;;;;;;;;;5037541;28;19908;-83
2021/04/06 15:10:04;;;;;;;;;;;;;;;;;;5037170;28;19908;-83
2021/04/06 15:12:29;;;;;;;;;;;;;;;;;;5020798;28;19959;-84
2021/04/06 15:14:54;;;;;;;;;;;;;;;;;;5020712;28;19982;-84
2021/04/06 15:17:20;;;;;;;;;;;;;;;;;;5021035;28;19920;-85
2021/04/06 15:19:52;;;;;;;;;;;;;;;;;;5037481;28;19912;-84
2021/04/06 15:22:17;;;;;;;;;;;;;;;;;;5020934;28;19908;-84
2021/04/06 15:24:43;;;;;;;;;;;;;;;;;;5020547;28;19916;-84
2021/04/06 15:27:08;;;;;;;;;;;;;;;;;;5037319;28;19909;-85
2021/04/06 15:29:33;;;;;;;;;;;;;;;;;;5016894;28;19909;-84
2021/04/06 15:31:59;;;;;;;;;;;;;;;;;;5016928;28;19983;-81
2021/04/06 15:34:24;;;;;;;;;;;;;;;;;;5017037;28;19909;-81
2021/04/06 15:36:50;;;;;;;;;;;;;;;;;;5000457;28;20279;-82
2021/04/06 15:39:15;;;;;;;;;;;;;;;;;;5016777;28;19931;-82
2021/04/06 15:41:41;;;;;;;;;;;;;;;;;;5016413;28;19935;-81
2021/04/06 15:44:06;;;;;;;;;;;;;;;;;;5033413;28;20393;-82
2021/04/06 15:46:32;;;;;;;;;;;;;;;;;;5016524;28;19916;-82
2021/04/06 15:49:07;;;;;;;;;;;;;;;;;;5017005;28;19909;-82
2021/04/06 15:51:33;;;;;;;;;;;;;;;;;;5000580;28;20367;-82
2021/04/06 15:53:58;;;;;;;;;;;;;;;;;;5015693;28;19959;-82
2021/04/06 15:56:23;;;;;;;;;;;;;;;;;;5016621;28;20406;-83
2021/04/06 15:58:49;;;;;;;;;;;;;;;;;;5033252;28;19991;-82
2021/04/06 16:01:14;;;;;;;;;;;;;;;;;;5016513;28;19908;-83
2021/04/06 16:03:39;;;;;;;;;;;;;;;;;;5028675;28;20054;-83
2021/04/06 16:06:05;;;;;;;;;;;;;;;;;;5036467;28;19908;-82
2021/04/06 16:08:30;;;;;;;;;;;;;;;;;;5019680;28;20007;-83
2021/04/06 16:10:56;;;;;;;;;;;;;;;;;;5036638;28;19916;-83
2021/04/06 16:13:21;;;;;;;;;;;;;;;;;;5036097;28;19920;-83
2021/04/06 16:15:46;;;;;;;;;;;;;;;;;;5036576;28;20382;-84
2021/04/06 16:18:12;;;;;;;;;;;;;;;;;;5019347;28;19912;-84
2021/04/06 16:20:37;;;;;;;;;;;;;;;;;;5036394;28;19910;-84
2021/04/06 16:23:03;;;;;;;;;;;;;;;;;;5019441;28;19914;-84
2021/04/06 16:25:29;;;;;;;;;;;;;;;;;;5019251;28;19909;-84
2021/04/06 16:27:54;;;;;;;;;;;;;;;;;;5019448;28;19915;-83
2021/04/06 16:30:41;;;;;;;;;;;;;;;;;;5032242;28;20394;-84
2021/04/06 16:33:07;;;;;;;;;;;;;;;;;;4999837;28;19959;-83
2021/04/06 16:35:32;;;;;;;;;;;;;;;;;;5032364;28;19920;-83
2021/04/06 16:37:58;;;;;;;;;;;;;;;;;;5015738;28;20322;-83
2021/04/06 16:40:24;;;;;;;;;;;;;;;;;;5015456;28;19909;-83
2021/04/06 16:42:49;;;;;;;;;;;;;;;;;;5015727;28;19958;-83
2021/04/06 16:45:14;;;;;;;;;;;;;;;;;;4999191;28;20387;-83
2021/04/06 16:47:40;;;;;;;;;;;;;;;;;;5015667;28;19916;-84
2021/04/06 16:50:05;;;;;;;;;;;;;;;;;;5031695;28;19909;-83
2021/04/06 16:52:30;;;;;;;;;;;;;;;;;;5032320;28;19909;-83
2021/04/06 16:54:56;;;;;;;;;;;;;;;;;;5031872;28;19990;-83
2021/04/06 16:57:21;;;;;;;;;;;;;;;;;;5032256;28;20139;-84
2021/04/06 16:59:46;;;;;;;;;;;;;;;;;;4998846;28;19917;-84
2021/04/06 17:02:12;;;;;;;;;;;;;;;;;;5015775;28;20019;-83
2021/04/06 17:04:37;;;;;;;;;;;;;;;;;;5034763;28;19916;-84
2021/04/06 17:07:02;;;;;;;;;;;;;;;;;;5018628;28;20362;-84
2021/04/06 17:09:28;;;;;;;;;;;;;;;;;;5035106;28;19908;-85
2021/04/06 17:11:53;;;;;;;;;;;;;;;;;;5018877;28;19913;-86
2021/04/06 17:14:18;;;;;;;;;;;;;;;;;;5018379;28;20390;-84
2021/04/06 17:16:44;;;;;;;;;;;;;;;;;;5018291;28;19959;-84
2021/04/06 17:19:10;;;;;;;;;;;;;;;;;;5034968;28;19916;-84
2021/04/06 17:21:35;;;;;;;;;;;;;;;;;;5018508;28;19908;-84